createdAt,value
2019-06-01T00:00:34.684Z,1014.60
2019-06-01T00:01:34.650Z,1014.58
2019-06-01T00:02:34.642Z,1014.58
2019-06-01T00:03:34.614Z,1014.61
2019-06-01T00:04:34.601Z,1014.60
2019-06-01T00:05:34.593Z,1014.60
2019-06-01T00:06:34.562Z,1014.58
2019-06-01T00:07:34.543Z,1014.65
2019-06-01T00:08:34.528Z,1014.62
2019-06-01T00:09:34.510Z,1014.64
2019-06-01T00:10:34.509Z,1014.63
2019-06-01T00:11:34.473Z,1014.59
2019-06-01T00:12:34.458Z,1014.60
2019-06-01T00:13:34.441Z,1014.59
2019-06-01T00:14:34.420Z,1014.58
2019-06-01T00:15:34.421Z,1014.60
2019-06-01T00:16:34.386Z,1014.61
2019-06-01T00:17:34.370Z,1014.57
2019-06-01T00:18:34.349Z,1014.58
2019-06-01T00:19:34.332Z,1014.60
2019-06-01T00:20:34.332Z,1014.63
2019-06-01T00:21:34.298Z,1014.60
2019-06-01T00:22:34.280Z,1014.59
2019-06-01T00:23:34.260Z,1014.60
2019-06-01T00:24:34.244Z,1014.62
2019-06-01T00:25:34.225Z,1014.59
2019-06-01T00:26:34.271Z,1014.55
2019-06-01T00:27:34.195Z,1014.56
2019-06-01T00:28:34.176Z,1014.53
2019-06-01T00:29:34.156Z,1014.56
2019-06-01T00:30:34.138Z,1014.57
2019-06-01T00:31:34.133Z,1014.54
2019-06-01T00:32:34.101Z,1014.57
2019-06-01T00:33:34.084Z,1014.55
2019-06-01T00:34:34.064Z,1014.57
2019-06-01T00:35:34.048Z,1014.55
2019-06-01T00:36:34.049Z,1014.55
2019-06-01T00:37:34.013Z,1014.53
2019-06-01T00:38:33.993Z,1014.55
2019-06-01T00:39:33.984Z,1014.53
2019-06-01T00:40:33.959Z,1014.55
2019-06-01T00:41:33.941Z,1014.55
2019-06-01T00:42:33.936Z,1014.57
2019-06-01T00:43:33.905Z,1014.55
2019-06-01T00:44:33.893Z,1014.57
2019-06-01T00:45:33.871Z,1014.60
2019-06-01T00:46:33.850Z,1014.58
2019-06-01T00:47:33.854Z,1014.60
2019-06-01T00:48:33.817Z,1014.56
2019-06-01T00:49:33.798Z,1014.58
2019-06-01T00:50:33.780Z,1014.60
2019-06-01T00:51:33.761Z,1014.60
2019-06-01T00:52:33.759Z,1014.63
2019-06-01T00:53:33.735Z,1014.64
2019-06-01T00:54:33.709Z,1014.62
2019-06-01T00:55:33.693Z,1014.67
2019-06-01T00:56:33.681Z,1014.67
2019-06-01T00:57:33.669Z,1014.68
2019-06-01T00:58:33.635Z,1014.68
2019-06-01T00:59:33.618Z,1014.65
2019-06-01T01:00:43.137Z,1014.63
2019-06-01T01:01:33.583Z,1014.67
2019-06-01T01:02:33.605Z,1014.68
2019-06-01T01:03:33.547Z,1014.69
2019-06-01T01:04:33.530Z,1014.66
2019-06-01T01:05:33.514Z,1014.69
2019-06-01T01:06:33.513Z,1014.66
2019-06-01T01:07:33.475Z,1014.71
2019-06-01T01:08:33.469Z,1014.66
2019-06-01T01:09:33.440Z,1014.65
2019-06-01T01:10:33.419Z,1014.65
2019-06-01T01:11:33.403Z,1014.64
2019-06-01T01:12:33.385Z,1014.66
2019-06-01T01:13:33.381Z,1014.63
2019-06-01T01:14:33.348Z,1014.63
2019-06-01T01:15:33.330Z,1014.64
2019-06-01T01:16:33.315Z,1014.63
2019-06-01T01:17:33.292Z,1014.66
2019-06-01T01:18:33.289Z,1014.66
2019-06-01T01:19:33.265Z,1014.68
2019-06-01T01:20:33.239Z,1014.61
2019-06-01T01:21:33.223Z,1014.62
2019-06-01T06:31:42.697Z,1014.55
2019-06-01T06:32:42.653Z,1014.55
2019-06-01T06:33:55.408Z,1014.53
2019-06-01T06:34:42.621Z,1014.50
2019-06-01T06:35:42.596Z,1014.45
2019-06-01T06:36:42.578Z,1014.46
2019-06-01T06:37:42.580Z,1014.42
2019-06-01T06:38:42.546Z,1014.47
2019-06-01T06:39:42.527Z,1014.41
2019-06-01T06:40:42.520Z,1014.47
2019-06-01T06:41:42.516Z,1014.41
2019-06-01T06:42:42.481Z,1014.49
2019-06-01T06:43:42.463Z,1014.49
2019-06-01T06:44:42.454Z,1014.48
2019-06-01T06:45:42.432Z,1014.42
2019-06-01T06:46:42.464Z,1014.44
2019-06-01T06:47:42.410Z,1014.41
2019-06-01T06:48:42.387Z,1014.39
2019-06-01T06:49:42.372Z,1014.37
2019-06-01T06:50:42.354Z,1014.36
2019-06-01T06:51:42.350Z,1014.36
2019-06-01T06:52:42.340Z,1014.40
2019-06-01T06:53:42.316Z,1014.38
2019-06-01T06:54:42.302Z,1014.36
2019-06-01T06:55:42.281Z,1014.36
2019-06-01T06:56:42.278Z,1014.35
2019-06-01T06:57:42.274Z,1014.33
2019-06-01T06:58:42.245Z,1014.34
2019-06-01T06:59:42.221Z,1014.31
2019-06-01T07:00:42.206Z,1014.37
2019-06-01T07:01:42.194Z,1014.35
2019-06-01T07:02:42.179Z,1014.40
2019-06-01T07:03:42.180Z,1014.36
2019-06-01T07:04:42.150Z,1014.38
2019-06-01T07:05:42.135Z,1014.39
2019-06-01T07:06:42.127Z,1014.39
2019-06-01T07:07:42.107Z,1014.40
2019-06-01T07:08:42.107Z,1014.36
2019-06-01T07:09:42.087Z,1014.36
2019-06-01T07:10:42.064Z,1014.33
2019-06-01T07:11:42.059Z,1014.33
2019-06-01T07:12:42.036Z,1014.36
2019-06-01T07:13:42.041Z,1014.38
2019-06-01T07:14:42.008Z,1014.39
2019-06-01T07:15:41.998Z,1014.40
2019-06-01T07:16:41.981Z,1014.40
2019-06-01T07:17:41.969Z,1014.35
2019-06-01T07:18:41.964Z,1014.35
2019-06-01T07:19:41.948Z,1014.35
2019-06-01T07:20:41.927Z,1014.34
2019-06-01T07:21:41.912Z,1014.36
2019-06-01T07:22:41.902Z,1014.38
2019-06-01T07:23:41.906Z,1014.36
2019-06-01T07:24:41.868Z,1014.33
2019-06-01T07:25:41.898Z,1014.36
2019-06-01T07:26:41.842Z,1014.37
2019-06-01T07:27:41.833Z,1014.39
2019-06-01T07:28:44.522Z,1014.39
2019-06-01T07:29:41.817Z,1014.44
2019-06-01T07:30:50.456Z,1014.44
2019-06-01T07:31:41.772Z,1014.45
2019-06-01T07:32:41.763Z,1014.46
2019-06-01T07:33:41.749Z,1014.51
2019-06-01T09:53:03.921Z,1013.83
2019-06-01T09:54:03.890Z,1013.84
2019-06-01T09:55:03.893Z,1013.87
2019-06-01T09:56:03.865Z,1013.83
2019-06-01T09:57:03.844Z,1013.84
2019-06-01T09:58:03.832Z,1013.82
2019-06-01T09:59:03.821Z,1013.82
2019-06-01T10:00:03.834Z,1013.78
2019-06-01T10:01:03.803Z,1013.78
2019-06-01T10:02:03.778Z,1013.73
2019-06-01T10:03:03.775Z,1013.76
2019-06-01T10:04:03.753Z,1013.81
2019-06-01T10:05:03.738Z,1013.79
2019-06-01T10:06:03.740Z,1013.78
2019-06-01T10:07:03.715Z,1013.75
2019-06-01T10:08:03.703Z,1013.77
2019-06-01T10:09:03.695Z,1013.78
2019-06-01T10:10:03.677Z,1013.80
2019-06-01T10:11:03.687Z,1013.80
2019-06-01T10:12:03.656Z,1013.78
2019-06-01T10:13:07.442Z,1013.81
2019-06-01T10:14:03.628Z,1013.84
2019-06-01T10:15:03.642Z,1013.84
2019-06-01T10:16:03.607Z,1013.81
2019-06-01T10:17:03.611Z,1013.84
2019-06-01T10:18:03.582Z,1013.83
2019-06-01T10:19:03.573Z,1013.83
2019-06-01T10:20:03.560Z,1013.78
2019-06-01T10:21:03.549Z,1013.75
2019-06-01T10:22:03.563Z,1013.80
2019-06-01T10:23:03.526Z,1013.74
2019-06-01T10:24:03.514Z,1013.75
2019-06-01T10:25:03.504Z,1013.80
2019-06-01T10:26:03.490Z,1013.79
2019-06-01T10:27:03.511Z,1013.79
2019-06-01T10:28:03.488Z,1013.80
2019-06-01T10:29:03.467Z,1013.78
2019-06-01T10:30:03.448Z,1013.80
2019-06-01T10:31:03.452Z,1013.74
2019-06-01T10:32:03.471Z,1013.74
2019-06-01T10:33:03.419Z,1013.71
2019-06-01T10:34:03.720Z,1013.74
2019-06-01T10:35:03.393Z,1013.73
2019-06-01T10:36:19.340Z,1013.77
2019-06-01T10:37:03.387Z,1013.76
2019-06-01T10:38:03.361Z,1013.76
2019-06-01T10:39:03.350Z,1013.75
2019-06-01T10:40:03.338Z,1013.75
2019-06-01T10:41:03.327Z,1013.73
2019-06-01T10:42:03.360Z,1013.69
2019-06-01T10:43:03.306Z,1013.66
2019-06-01T10:44:03.300Z,1013.65
2019-06-01T10:45:03.294Z,1013.64
2019-06-01T10:46:03.276Z,1013.68
2019-06-01T10:47:03.265Z,1013.64
2019-06-01T10:48:03.268Z,1013.63
2019-06-01T10:49:03.245Z,1013.58
2019-06-01T10:50:03.247Z,1013.59
2019-06-01T10:51:03.230Z,1013.60
2019-06-01T10:52:03.210Z,1013.61
2019-06-01T10:53:03.227Z,1013.59
2019-06-01T10:54:03.223Z,1013.58
2019-06-01T10:55:03.180Z,1013.58
2019-06-01T10:56:03.169Z,1013.61
2019-06-01T10:57:03.167Z,1013.58
2019-06-01T10:58:03.166Z,1013.61
2019-06-01T10:59:03.153Z,1013.60
2019-06-01T11:00:03.131Z,1013.58
2019-06-01T11:01:03.119Z,1013.59
2019-06-01T11:02:03.108Z,1013.60
2019-06-01T11:03:03.110Z,1013.59
2019-06-01T11:04:03.102Z,1013.60
2019-06-01T11:05:03.079Z,1013.59
2019-06-01T11:06:03.081Z,1013.59
2019-06-01T11:07:03.062Z,1013.58
2019-06-01T11:08:03.048Z,1013.58
2019-06-01T11:09:03.053Z,1013.55
2019-06-01T11:10:03.027Z,1013.52
2019-06-01T11:11:03.018Z,1013.52
2019-06-01T11:12:03.040Z,1013.49
2019-06-01T11:13:02.999Z,1013.51
2019-06-01T11:14:03.006Z,1013.51
2019-06-01T11:15:02.979Z,1013.49
2019-06-01T11:16:02.975Z,1013.49
2019-06-01T11:17:02.962Z,1013.49
2019-06-01T11:18:02.950Z,1013.49
2019-06-01T11:19:02.952Z,1013.45
2019-06-01T11:20:02.931Z,1013.47
2019-06-01T11:21:02.921Z,1013.40
2019-06-01T11:22:02.907Z,1013.42
2019-06-01T11:23:03.076Z,1013.37
2019-06-01T11:24:02.907Z,1013.36
2019-06-01T11:25:02.885Z,1013.42
2019-06-01T11:26:02.873Z,1013.43
2019-06-01T11:27:02.861Z,1013.37
2019-06-01T11:28:02.854Z,1013.42
2019-06-01T11:29:02.876Z,1013.40
2019-06-01T11:30:02.834Z,1013.41
2019-06-01T11:31:02.826Z,1013.36
2019-06-01T11:32:02.828Z,1013.35
2019-06-01T11:33:02.806Z,1013.34
2019-06-01T11:34:02.793Z,1013.34
2019-06-01T11:35:02.803Z,1013.35
2019-06-01T11:36:02.778Z,1013.34
2019-06-01T11:37:05.568Z,1013.31
2019-06-01T11:38:02.757Z,1013.30
2019-06-01T11:39:02.746Z,1013.28
2019-06-01T11:40:02.755Z,1013.23
2019-06-01T11:41:02.727Z,1013.23
2019-06-01T11:42:02.718Z,1013.20
2019-06-01T11:43:02.708Z,1013.22
2019-06-01T11:44:02.698Z,1013.23
2019-06-01T11:45:02.708Z,1013.26
2019-06-01T11:46:02.678Z,1013.21
2019-06-01T11:47:02.670Z,1013.17
2019-06-01T11:48:02.660Z,1013.18
2019-06-01T11:49:02.650Z,1013.14
2019-06-01T11:50:02.641Z,1013.12
2019-06-01T11:51:02.646Z,1013.10
2019-06-01T11:52:02.622Z,1013.12
2019-06-01T11:53:02.613Z,1013.13
2019-06-01T11:54:02.599Z,1013.10
2019-06-01T11:55:02.591Z,1013.11
2019-06-01T11:56:02.598Z,1013.09
2019-06-01T11:57:02.575Z,1013.09
2019-06-01T11:58:02.592Z,1013.10
2019-06-01T11:59:02.554Z,1013.05
2019-06-01T12:00:02.544Z,1013.06
2019-06-01T12:01:02.554Z,1013.07
2019-06-01T12:02:02.530Z,1013.05
2019-06-01T12:03:02.539Z,1013.05
2019-06-01T12:04:02.515Z,1013.06
2019-06-01T12:05:02.502Z,1013.07
2019-06-01T12:06:02.487Z,1013.01
2019-06-01T12:07:17.156Z,1012.99
2019-06-01T12:08:02.471Z,1012.99
2019-06-01T12:09:02.463Z,1012.98
2019-06-01T12:10:02.449Z,1013.01
2019-06-01T12:11:02.443Z,1013.00
2019-06-01T12:12:02.459Z,1013.01
2019-06-01T12:13:02.449Z,1013.01
2019-06-01T12:14:02.414Z,1012.99
2019-06-01T12:15:02.406Z,1013.01
2019-06-01T12:16:02.398Z,1012.95
2019-06-01T12:17:02.402Z,1012.94
2019-06-01T12:18:02.376Z,1012.91
2019-06-01T12:19:02.367Z,1012.86
2019-06-01T12:20:02.567Z,1012.87
2019-06-01T12:21:02.350Z,1012.87
2019-06-01T12:22:02.370Z,1012.84
2019-06-01T12:23:02.331Z,1012.88
2019-06-01T12:24:02.326Z,1012.84
2019-06-01T12:25:02.315Z,1012.81
2019-06-01T12:26:02.305Z,1012.78
2019-06-01T12:27:02.296Z,1012.77
2019-06-01T12:28:02.299Z,1012.73
2019-06-01T12:29:02.281Z,1012.73
2019-06-01T12:30:02.270Z,1012.71
2019-06-01T12:31:02.263Z,1012.71
2019-06-01T12:32:02.254Z,1012.68
2019-06-01T12:33:02.308Z,1012.68
2019-06-01T12:34:02.234Z,1012.65
2019-06-01T12:35:03.472Z,1012.66
2019-06-01T12:36:02.218Z,1012.64
2019-06-01T12:37:02.213Z,1012.63
2019-06-01T12:38:06.339Z,1012.66
2019-06-01T12:39:02.195Z,1012.63
2019-06-01T12:40:02.185Z,1012.66
2019-06-01T12:41:02.178Z,1012.61
2019-06-01T12:42:02.166Z,1012.63
2019-06-01T12:43:02.158Z,1012.62
2019-06-01T12:44:02.161Z,1012.61
2019-06-01T12:45:02.323Z,1012.63
2019-06-01T12:46:07.204Z,1012.64
2019-06-01T12:47:02.123Z,1012.62
2019-06-01T12:48:02.124Z,1012.60
2019-06-01T12:49:02.122Z,1012.60
2019-06-01T12:50:02.189Z,1012.62
2019-06-01T12:51:02.094Z,1012.63
2019-06-01T12:52:02.083Z,1012.63
2019-06-01T12:53:02.079Z,1012.59
2019-06-01T12:54:02.084Z,1012.61
2019-06-01T12:55:02.062Z,1012.57
2019-06-01T12:56:02.052Z,1012.56
2019-06-01T12:57:02.041Z,1012.56
2019-06-01T12:58:02.035Z,1012.53
2019-06-01T12:59:02.043Z,1012.51
2019-06-01T13:00:02.028Z,1012.50
2019-06-01T13:01:02.918Z,1012.47
2019-06-01T13:02:02.005Z,1012.48
2019-06-01T13:03:07.569Z,1012.44
2019-06-01T13:04:02.009Z,1012.44
2019-06-01T13:05:01.989Z,1012.44
2019-06-01T13:06:02.085Z,1012.46
2019-06-01T13:07:01.973Z,1012.42
2019-06-01T13:08:03.075Z,1012.43
2019-06-01T13:09:01.956Z,1012.45
2019-06-01T13:10:01.970Z,1012.42
2019-06-01T13:11:01.943Z,1012.43
2019-06-01T13:12:01.941Z,1012.37
2019-06-01T13:13:01.933Z,1012.42
2019-06-01T13:14:04.265Z,1012.37
2019-06-01T13:15:01.930Z,1012.36
2019-06-01T13:16:01.910Z,1012.36
2019-06-01T13:17:07.109Z,1012.38
2019-06-01T13:18:01.895Z,1012.35
2019-06-01T13:19:01.889Z,1012.37
2019-06-01T13:20:01.936Z,1012.36
2019-06-01T13:21:01.877Z,1012.38
2019-06-01T13:22:01.887Z,1012.34
2019-06-01T13:23:01.864Z,1012.30
2019-06-01T13:24:01.858Z,1012.35
2019-06-01T13:25:01.883Z,1012.31
2019-06-01T13:26:01.868Z,1012.30
2019-06-01T13:27:01.925Z,1012.29
2019-06-01T13:28:01.835Z,1012.26
2019-06-01T13:29:01.827Z,1012.26
2019-06-01T13:30:01.821Z,1012.30
2019-06-01T13:31:01.835Z,1012.28
2019-06-01T13:32:01.811Z,1012.24
2019-06-01T13:33:01.805Z,1012.25
2019-06-01T13:34:01.848Z,1012.21
2019-06-01T13:35:01.794Z,1012.23
2019-06-01T13:36:01.800Z,1012.21
2019-06-01T13:37:01.786Z,1012.19
2019-06-01T13:38:11.516Z,1012.14
2019-06-01T13:39:01.771Z,1012.19
2019-06-01T13:40:01.769Z,1012.13
2019-06-01T13:41:01.775Z,1012.15
2019-06-01T13:42:01.755Z,1012.12
2019-06-01T13:43:01.756Z,1012.12
2019-06-01T13:44:01.747Z,1012.14
2019-06-01T13:45:01.861Z,1012.16
2019-06-01T13:46:01.754Z,1012.17
2019-06-01T13:47:01.733Z,1012.15
2019-06-01T13:48:01.731Z,1012.16
2019-06-01T13:49:01.725Z,1012.16
2019-06-01T13:50:06.288Z,1012.15
2019-06-01T13:51:01.733Z,1012.18
2019-06-01T13:52:01.715Z,1012.13
2019-06-01T13:53:01.706Z,1012.11
2019-06-01T13:54:01.704Z,1012.14
2019-06-01T13:55:01.732Z,1012.11
2019-06-01T13:56:01.694Z,1012.07
2019-06-01T13:57:01.701Z,1012.05
2019-06-01T13:58:01.688Z,1012.04
2019-06-01T13:59:01.682Z,1012.01
2019-06-01T14:00:01.679Z,1011.99
2019-06-01T14:01:01.673Z,1012.01
2019-06-01T14:02:01.678Z,1012.01
2019-06-01T14:03:01.663Z,1011.97
2019-06-01T14:04:01.658Z,1011.92
2019-06-01T14:05:01.656Z,1011.91
2019-06-01T14:06:01.656Z,1011.90
2019-06-01T14:07:01.671Z,1011.87
2019-06-01T14:08:01.644Z,1011.86
2019-06-01T14:09:01.642Z,1011.85
2019-06-01T14:10:01.641Z,1011.83
2019-06-01T14:11:01.636Z,1011.79
2019-06-01T14:12:01.669Z,1011.81
2019-06-01T14:13:05.025Z,1011.81
2019-06-01T14:14:01.631Z,1011.80
2019-06-01T14:15:01.659Z,1011.81
2019-06-01T14:16:01.623Z,1011.77
2019-06-01T14:17:01.621Z,1011.76
2019-06-01T14:18:01.629Z,1011.76
2019-06-01T14:19:01.613Z,1011.76
2019-06-01T14:20:01.608Z,1011.79
2019-06-01T14:21:01.605Z,1011.76
2019-06-01T14:22:01.600Z,1011.71
2019-06-01T14:23:01.613Z,1011.73
2019-06-01T14:24:01.597Z,1011.74
2019-06-01T14:25:12.970Z,1011.73
2019-06-01T14:26:01.591Z,1011.74
2019-06-01T14:27:01.587Z,1011.71
2019-06-01T14:28:01.597Z,1011.70
2019-06-01T14:29:01.581Z,1011.73
2019-06-01T14:30:01.586Z,1011.68
2019-06-01T14:31:01.575Z,1011.67
2019-06-01T14:32:01.576Z,1011.62
2019-06-01T14:33:01.584Z,1011.67
2019-06-01T14:34:01.571Z,1011.65
2019-06-01T14:35:01.570Z,1011.65
2019-06-01T14:36:01.564Z,1011.59
2019-06-01T14:37:01.563Z,1011.59
2019-06-01T14:38:01.573Z,1011.59
2019-06-01T14:39:01.558Z,1011.61
2019-06-01T14:40:01.564Z,1011.53
2019-06-01T14:41:01.555Z,1011.53
2019-06-01T14:42:01.552Z,1011.52
2019-06-01T14:43:01.571Z,1011.49
2019-06-01T14:44:01.549Z,1011.50
2019-06-01T14:45:01.546Z,1011.43
2019-06-01T14:46:01.544Z,1011.48
2019-06-01T14:47:05.432Z,1011.48
2019-06-01T14:48:01.547Z,1011.47
2019-06-01T14:49:01.555Z,1011.44
2019-06-01T14:50:01.539Z,1011.44
2019-06-01T14:51:01.540Z,1011.44
2019-06-01T14:52:01.559Z,1011.41
2019-06-01T14:53:01.538Z,1011.36
2019-06-01T14:54:01.548Z,1011.28
2019-06-01T14:55:01.539Z,1011.30
2019-06-01T14:56:01.537Z,1011.32
2019-06-01T14:57:01.534Z,1011.35
2019-06-01T14:58:01.532Z,1011.40
2019-06-01T14:59:02.242Z,1011.45
2019-06-01T15:00:01.536Z,1011.48
2019-06-01T15:01:01.533Z,1011.56
2019-06-01T15:02:01.532Z,1011.60
2019-06-01T15:03:01.531Z,1011.72
2019-06-01T15:04:01.549Z,1011.73
2019-06-01T15:05:01.532Z,1011.73
2019-06-01T15:06:01.532Z,1011.66
2019-06-01T15:07:01.532Z,1011.61
2019-06-01T15:08:01.529Z,1011.58
2019-06-01T15:09:17.160Z,1011.58
2019-06-01T15:10:01.530Z,1011.56
2019-06-01T15:11:01.531Z,1011.51
2019-06-01T15:12:01.530Z,1011.58
2019-06-01T15:13:03.394Z,1011.57
2019-06-01T15:14:01.563Z,1011.58
2019-06-01T15:15:02.957Z,1011.59
2019-06-01T15:16:02.035Z,1011.52
2019-06-01T15:17:02.335Z,1011.53
2019-06-01T15:18:04.830Z,1011.51
2019-06-01T15:19:02.073Z,1011.53
2019-06-01T15:20:02.684Z,1011.51
2019-06-01T15:21:02.179Z,1011.54
2019-06-01T15:22:03.505Z,1011.57
2019-06-01T15:23:03.592Z,1011.56
2019-06-01T15:24:02.317Z,1011.63
2019-06-01T15:25:03.436Z,1011.63
2019-06-01T15:26:02.614Z,1011.68
2019-06-01T15:27:01.535Z,1011.68
2019-06-01T15:28:01.593Z,1011.76
2019-06-01T15:29:01.534Z,1011.83
2019-06-01T15:30:01.550Z,1011.98
2019-06-01T15:31:01.534Z,1012.18
2019-06-01T15:32:02.295Z,1012.20
2019-06-01T15:33:03.248Z,1012.17
2019-06-01T15:34:01.915Z,1012.20
2019-06-01T15:35:03.116Z,1012.29
2019-06-01T15:36:01.843Z,1012.31
2019-06-01T15:37:01.894Z,1012.24
2019-06-01T15:38:02.749Z,1012.10
2019-06-01T15:39:02.254Z,1011.95
2019-06-01T15:40:01.565Z,1011.82
2019-06-01T15:41:02.419Z,1011.75
2019-06-01T15:42:01.552Z,1011.63
2019-06-01T15:43:01.645Z,1011.51
2019-06-01T15:44:01.546Z,1011.42
2019-06-01T15:45:01.614Z,1011.42
2019-06-01T15:46:02.101Z,1011.30
2019-06-01T15:47:02.086Z,1011.24
2019-06-01T15:48:02.410Z,1011.17
2019-06-01T15:49:01.952Z,1011.21
2019-06-01T15:50:02.639Z,1011.18
2019-06-01T15:51:06.616Z,1011.17
2019-06-01T15:52:02.028Z,1011.17
2019-06-01T15:53:01.552Z,1011.18
2019-06-01T15:54:01.565Z,1011.14
2019-06-01T15:55:02.906Z,1011.15
2019-06-01T15:56:01.553Z,1011.13
2019-06-01T15:57:02.596Z,1011.07
2019-06-01T15:58:02.900Z,1011.07
2019-06-01T15:59:02.748Z,1011.10
2019-06-01T16:00:02.991Z,1011.08
2019-06-01T16:01:03.069Z,1011.07
2019-06-01T16:02:09.233Z,1011.08
2019-06-01T16:03:01.560Z,1011.03
2019-06-01T16:04:01.564Z,1011.05
2019-06-01T16:05:01.597Z,1011.04
2019-06-01T16:06:01.575Z,1010.98
2019-06-01T16:07:01.580Z,1010.99
2019-06-01T16:08:01.745Z,1010.99
2019-06-01T16:09:01.826Z,1010.96
2019-06-01T16:10:06.627Z,1011.00
2019-06-01T16:11:04.717Z,1010.96
2019-06-01T16:12:01.800Z,1010.97
2019-06-01T16:13:01.672Z,1010.93
2019-06-01T16:14:01.771Z,1010.92
2019-06-01T16:15:02.155Z,1010.95
2019-06-01T16:16:02.364Z,1010.87
2019-06-01T16:17:02.875Z,1010.88
2019-06-01T16:18:02.078Z,1010.87
2019-06-01T16:19:05.803Z,1010.88
2019-06-01T16:20:02.342Z,1010.91
2019-06-01T16:21:02.298Z,1010.92
2019-06-01T16:22:02.645Z,1010.91
2019-06-01T16:23:02.505Z,1010.89
2019-06-01T16:24:02.369Z,1010.89
2019-06-01T16:25:02.541Z,1010.86
2019-06-01T16:26:12.713Z,1010.92
2019-06-01T16:27:02.664Z,1010.86
2019-06-01T16:28:03.127Z,1010.87
2019-06-01T16:29:03.308Z,1010.88
2019-06-01T16:30:02.395Z,1010.87
2019-06-01T16:31:02.884Z,1010.88
2019-06-01T16:32:02.937Z,1010.88
2019-06-01T16:33:02.847Z,1010.87
2019-06-01T16:34:02.763Z,1010.89
2019-06-01T16:35:02.990Z,1010.90
2019-06-01T16:36:02.782Z,1010.93
2019-06-01T16:37:01.596Z,1010.90
2019-06-01T16:38:02.854Z,1010.90
2019-06-01T16:39:04.796Z,1010.90
2019-06-01T16:40:05.949Z,1010.87
2019-06-01T16:41:01.602Z,1010.86
2019-06-01T16:42:02.142Z,1010.80
2019-06-01T16:43:01.657Z,1010.82
2019-06-01T16:44:01.842Z,1010.88
2019-06-01T16:45:01.750Z,1010.85
2019-06-01T16:46:02.086Z,1010.82
2019-06-01T16:47:02.746Z,1010.81
2019-06-01T16:48:01.739Z,1010.81
2019-06-01T16:49:01.650Z,1010.83
2019-06-01T16:50:01.881Z,1010.86
2019-06-01T16:51:02.215Z,1010.86
2019-06-01T16:52:03.056Z,1010.80
2019-06-01T16:53:02.095Z,1010.81
2019-06-01T16:54:01.985Z,1010.79
2019-06-01T16:55:02.759Z,1010.83
2019-06-01T16:56:02.013Z,1010.79
2019-06-01T16:57:02.899Z,1010.77
2019-06-01T16:58:01.625Z,1010.73
2019-06-01T16:59:02.314Z,1010.75
2019-06-01T17:00:02.761Z,1010.75
2019-06-01T17:01:02.666Z,1010.73
2019-06-01T17:02:03.178Z,1010.72
2019-06-01T17:03:02.652Z,1010.75
2019-06-01T17:04:02.624Z,1010.73
2019-06-01T17:05:02.831Z,1010.69
2019-06-01T17:06:02.759Z,1010.73
2019-06-01T17:07:05.005Z,1010.72
2019-06-01T17:08:02.701Z,1010.70
2019-06-01T17:09:03.640Z,1010.71
2019-06-01T17:10:20.523Z,1010.67
2019-06-01T17:11:02.727Z,1010.65
2019-06-01T17:12:01.647Z,1010.64
2019-06-01T17:13:03.117Z,1010.62
2019-06-01T17:14:02.787Z,1010.64
2019-06-01T17:15:03.148Z,1010.62
2019-06-01T17:16:02.942Z,1010.57
2019-06-01T17:17:03.091Z,1010.56
2019-06-01T17:18:04.824Z,1010.58
2019-06-01T17:19:02.975Z,1010.63
2019-06-01T17:20:01.680Z,1010.55
2019-06-01T17:21:01.657Z,1010.56
2019-06-01T17:22:01.661Z,1010.58
2019-06-01T17:23:18.245Z,1010.56
2019-06-01T17:24:01.684Z,1010.53
2019-06-01T17:25:01.856Z,1010.53
2019-06-01T17:26:01.959Z,1010.55
2019-06-01T17:27:02.118Z,1010.52
2019-06-01T17:28:03.032Z,1010.51
2019-06-01T17:29:02.152Z,1010.52
2019-06-01T17:30:06.151Z,1010.55
2019-06-01T17:31:02.323Z,1010.54
2019-06-01T17:32:16.706Z,1010.62
2019-06-01T17:33:02.316Z,1010.57
2019-06-01T17:34:02.508Z,1010.56
2019-06-01T17:35:03.182Z,1010.57
2019-06-01T17:36:02.808Z,1010.53
2019-06-01T17:37:02.761Z,1010.47
2019-06-01T17:38:02.751Z,1010.45
2019-06-01T17:39:02.011Z,1010.36
2019-06-01T17:40:02.456Z,1010.36
2019-06-01T17:41:02.227Z,1010.38
2019-06-01T17:42:02.472Z,1010.42
2019-06-01T17:43:02.912Z,1010.45
2019-06-01T17:44:02.595Z,1010.35
2019-06-01T17:45:03.730Z,1010.35
2019-06-01T17:46:02.734Z,1010.41
2019-06-01T17:47:02.026Z,1010.41
2019-06-01T17:48:18.228Z,1010.36
2019-06-01T17:49:01.974Z,1010.31
2019-06-01T17:50:02.607Z,1010.26
2019-06-01T17:51:02.563Z,1010.22
2019-06-01T17:52:01.831Z,1010.14
2019-06-01T17:53:02.520Z,1010.11
2019-06-01T17:54:02.793Z,1010.12
2019-06-01T17:55:03.108Z,1010.12
2019-06-01T17:56:01.952Z,1010.08
2019-06-01T17:57:01.635Z,1010.05
2019-06-01T17:58:01.686Z,1010.04
2019-06-01T17:59:01.626Z,1010.03
2019-06-01T18:00:01.844Z,1010.06
2019-06-01T18:01:01.924Z,1010.07
2019-06-01T18:02:01.829Z,1010.05
2019-06-01T18:03:01.696Z,1010.04
2019-06-01T18:04:01.824Z,1010.05
2019-06-01T18:05:02.052Z,1010.00
2019-06-01T18:06:01.795Z,1009.98
2019-06-01T18:07:01.808Z,1010.00
2019-06-01T18:08:01.910Z,1009.93
2019-06-01T18:09:01.972Z,1010.00
2019-06-01T18:10:02.446Z,1010.01
2019-06-01T18:11:01.981Z,1009.97
2019-06-01T18:12:01.987Z,1009.96
2019-06-01T18:13:02.302Z,1009.95
2019-06-01T18:14:02.109Z,1009.95
2019-06-01T18:15:02.302Z,1009.95
2019-06-01T18:16:02.994Z,1009.95
2019-06-01T18:17:02.137Z,1009.89
2019-06-01T18:18:02.304Z,1009.89
2019-06-01T18:19:02.148Z,1009.88
2019-06-01T18:20:02.468Z,1009.88
2019-06-01T18:21:02.229Z,1009.85
2019-06-01T18:22:02.586Z,1009.87
2019-06-01T18:23:02.316Z,1009.87
2019-06-01T18:24:03.330Z,1009.83
2019-06-01T18:25:02.510Z,1009.83
2019-06-01T18:26:02.556Z,1009.82
2019-06-01T18:27:02.355Z,1009.83
2019-06-01T18:28:02.538Z,1009.83
2019-06-01T18:29:02.486Z,1009.78
2019-06-01T18:30:02.730Z,1009.84
2019-06-01T18:31:02.685Z,1009.81
2019-06-01T18:32:01.415Z,1009.80
2019-06-01T18:33:02.824Z,1009.81
2019-06-01T18:34:02.991Z,1009.80
2019-06-01T18:35:01.407Z,1009.80
2019-06-01T18:36:01.382Z,1009.81
2019-06-01T18:37:01.372Z,1009.82
2019-06-01T18:38:01.380Z,1009.83
2019-06-01T18:39:01.358Z,1009.81
2019-06-01T18:40:01.350Z,1009.81
2019-06-01T18:41:12.891Z,1009.75
2019-06-01T18:42:01.340Z,1009.79
2019-06-01T18:43:01.357Z,1009.76
2019-06-01T18:44:01.314Z,1009.78
2019-06-01T18:45:01.306Z,1009.81
2019-06-01T18:46:01.293Z,1009.79
2019-06-01T18:47:01.285Z,1009.81
2019-06-01T18:48:01.276Z,1009.81
2019-06-01T18:49:01.310Z,1009.78
2019-06-01T18:50:01.258Z,1009.75
2019-06-01T18:51:01.252Z,1009.72
2019-06-01T18:52:01.240Z,1009.72
2019-06-01T18:53:01.295Z,1009.75
2019-06-01T18:54:01.235Z,1009.71
2019-06-01T18:55:01.211Z,1009.74
2019-06-01T18:56:01.204Z,1009.75
2019-06-01T18:57:12.214Z,1009.71
2019-06-01T18:58:01.183Z,1009.71
2019-06-01T18:59:01.191Z,1009.75
2019-06-01T19:00:01.167Z,1009.72
2019-06-01T19:01:01.158Z,1009.68
2019-06-01T19:02:01.143Z,1009.72
2019-06-01T19:03:01.133Z,1009.70
2019-06-01T19:04:01.140Z,1009.68
2019-06-01T19:05:01.115Z,1009.70
2019-06-01T19:06:01.104Z,1009.77
2019-06-01T19:07:01.093Z,1009.75
2019-06-01T19:08:01.083Z,1009.70
2019-06-01T19:09:01.073Z,1009.71
2019-06-01T19:10:01.078Z,1009.70
2019-06-01T19:11:01.051Z,1009.70
2019-06-01T19:12:01.039Z,1009.66
2019-06-01T19:13:01.031Z,1009.69
2019-06-01T19:14:01.017Z,1009.71
2019-06-01T19:15:01.076Z,1009.73
2019-06-01T19:16:00.998Z,1009.73
2019-06-01T19:17:01.073Z,1009.74
2019-06-01T19:18:00.976Z,1009.75
2019-06-01T19:19:00.969Z,1009.74
2019-06-01T19:20:00.961Z,1009.72
2019-06-01T19:21:00.961Z,1009.71
2019-06-01T19:22:00.937Z,1009.71
2019-06-01T19:23:00.923Z,1009.72
2019-06-01T19:24:00.909Z,1009.73
2019-06-01T19:25:00.914Z,1009.78
2019-06-01T19:26:00.887Z,1009.75
2019-06-01T19:27:00.874Z,1009.77
2019-06-01T19:28:00.870Z,1009.74
2019-06-01T19:29:00.852Z,1009.73
2019-06-01T19:30:00.876Z,1009.75
2019-06-01T19:31:00.828Z,1009.77
2019-06-01T19:32:00.819Z,1009.74
2019-06-01T19:33:00.806Z,1009.75